sensor_id;sensor_type;location;lat;lon;timestamp;pressure;altitude;pressure_sealevel;temperature
63220;BMP180;49320;52.512;13.448;2023-03-14T00:02:14;98794.00;;;19.90
63220;BMP180;49320;52.512;13.448;2023-03-14T00:04:41;98795.00;;;19.80
63220;BMP180;49320;52.512;13.448;2023-03-14T00:07:11;98804.00;;;19.80
63220;BMP180;49320;52.512;13.448;2023-03-14T00:09:38;98787.00;;;19.80
63220;BMP180;49320;52.512;13.448;2023-03-14T00:12:06;98782.00;;;19.80
63220;BMP180;49320;52.512;13.448;2023-03-14T00:14:33;98777.00;;;19.70
63220;BMP180;49320;52.512;13.448;2023-03-14T00:17:00;98774.00;;;19.70
63220;BMP180;49320;52.512;13.448;2023-03-14T00:19:27;98764.00;;;19.70
63220;BMP180;49320;52.512;13.448;2023-03-14T00:21:54;98744.00;;;19.60
63220;BMP180;49320;52.512;13.448;2023-03-14T00:24:21;98749.00;;;19.60
63220;BMP180;49320;52.512;13.448;2023-03-14T00:26:47;98747.00;;;19.50
63220;BMP180;49320;52.512;13.448;2023-03-14T00:29:14;98741.00;;;19.50
63220;BMP180;49320;52.512;13.448;2023-03-14T00:31:41;98733.00;;;19.50
63220;BMP180;49320;52.512;13.448;2023-03-14T00:34:08;98740.00;;;19.40
63220;BMP180;49320;52.512;13.448;2023-03-14T00:36:35;98716.00;;;19.40
63220;BMP180;49320;52.512;13.448;2023-03-14T00:39:01;98712.00;;;19.40
63220;BMP180;49320;52.512;13.448;2023-03-14T00:41:29;98710.00;;;19.30
63220;BMP180;49320;52.512;13.448;2023-03-14T00:43:55;98707.00;;;19.30
63220;BMP180;49320;52.512;13.448;2023-03-14T00:46:22;98707.00;;;19.30
63220;BMP180;49320;52.512;13.448;2023-03-14T00:48:49;98720.00;;;19.20
63220;BMP180;49320;52.512;13.448;2023-03-14T00:51:16;98721.00;;;19.20
63220;BMP180;49320;52.512;13.448;2023-03-14T00:53:44;98721.00;;;19.20
63220;BMP180;49320;52.512;13.448;2023-03-14T00:56:12;98710.00;;;19.20
63220;BMP180;49320;52.512;13.448;2023-03-14T00:58:40;98696.00;;;19.10
63220;BMP180;49320;52.512;13.448;2023-03-14T01:01:12;98695.00;;;19.10
63220;BMP180;49320;52.512;13.448;2023-03-14T01:03:39;98694.00;;;19.10
63220;BMP180;49320;52.512;13.448;2023-03-14T01:06:13;98673.00;;;19.10
63220;BMP180;49320;52.512;13.448;2023-03-14T01:08:41;98662.00;;;19.00
63220;BMP180;49320;52.512;13.448;2023-03-14T01:11:12;98664.00;;;19.00
63220;BMP180;49320;52.512;13.448;2023-03-14T01:13:39;98668.00;;;19.00
63220;BMP180;49320;52.512;13.448;2023-03-14T01:16:10;98678.00;;;19.00
63220;BMP180;49320;52.512;13.448;2023-03-14T01:18:39;98680.00;;;18.90
63220;BMP180;49320;52.512;13.448;2023-03-14T01:21:20;98702.00;;;18.90
63220;BMP180;49320;52.512;13.448;2023-03-14T01:23:48;98725.00;;;18.90
63220;BMP180;49320;52.512;13.448;2023-03-14T01:26:19;98732.00;;;18.90
63220;BMP180;49320;52.512;13.448;2023-03-14T01:28:48;98755.00;;;18.90
63220;BMP180;49320;52.512;13.448;2023-03-14T01:31:16;98747.00;;;18.80
63220;BMP180;49320;52.512;13.448;2023-03-14T01:33:44;98741.00;;;18.80
63220;BMP180;49320;52.512;13.448;2023-03-14T01:36:12;98753.00;;;18.80
63220;BMP180;49320;52.512;13.448;2023-03-14T01:38:40;98752.00;;;18.80
63220;BMP180;49320;52.512;13.448;2023-03-14T01:41:14;98748.00;;;18.80
63220;BMP180;49320;52.512;13.448;2023-03-14T01:43:41;98746.00;;;18.80
63220;BMP180;49320;52.512;13.448;2023-03-14T01:46:22;98738.00;;;18.80
63220;BMP180;49320;52.512;13.448;2023-03-14T01:49:01;98755.00;;;18.80
63220;BMP180;49320;52.512;13.448;2023-03-14T01:51:36;98762.00;;;18.80
63220;BMP180;49320;52.512;13.448;2023-03-14T01:54:15;98773.00;;;18.80
63220;BMP180;49320;52.512;13.448;2023-03-14T01:56:49;98774.00;;;18.80
63220;BMP180;49320;52.512;13.448;2023-03-14T01:59:17;98765.00;;;18.90
63220;BMP180;49320;52.512;13.448;2023-03-14T02:01:47;98756.00;;;18.90
63220;BMP180;49320;52.512;13.448;2023-03-14T02:04:18;98750.00;;;18.90
63220;BMP180;49320;52.512;13.448;2023-03-14T02:07:02;98733.00;;;18.90
63220;BMP180;49320;52.512;13.448;2023-03-14T02:09:31;98733.00;;;18.90
63220;BMP180;49320;52.512;13.448;2023-03-14T02:11:58;98731.00;;;18.90
63220;BMP180;49320;52.512;13.448;2023-03-14T02:14:32;98724.00;;;18.90
63220;BMP180;49320;52.512;13.448;2023-03-14T02:17:01;98717.00;;;18.90
63220;BMP180;49320;52.512;13.448;2023-03-14T02:19:50;98714.00;;;18.90
63220;BMP180;49320;52.512;13.448;2023-03-14T02:22:20;98718.00;;;18.80
63220;BMP180;49320;52.512;13.448;2023-03-14T02:25:21;98721.00;;;18.80
63220;BMP180;49320;52.512;13.448;2023-03-14T02:27:51;98715.00;;;18.80
63220;BMP180;49320;52.512;13.448;2023-03-14T02:30:23;98715.00;;;18.80
63220;BMP180;49320;52.512;13.448;2023-03-14T02:32:57;98721.00;;;18.80
63220;BMP180;49320;52.512;13.448;2023-03-14T02:35:32;98706.00;;;18.80
63220;BMP180;49320;52.512;13.448;2023-03-14T02:41:02;98714.00;;;18.80
63220;BMP180;49320;52.512;13.448;2023-03-14T02:43:29;98699.00;;;18.80
63220;BMP180;49320;52.512;13.448;2023-03-14T02:45:56;98702.00;;;18.80
63220;BMP180;49320;52.512;13.448;2023-03-14T02:48:33;98696.00;;;18.80
63220;BMP180;49320;52.512;13.448;2023-03-14T02:51:02;98700.00;;;18.80
63220;BMP180;49320;52.512;13.448;2023-03-14T02:53:34;98699.00;;;18.80
63220;BMP180;49320;52.512;13.448;2023-03-14T02:56:01;98684.00;;;18.80
63220;BMP180;49320;52.512;13.448;2023-03-14T02:58:29;98681.00;;;18.80
63220;BMP180;49320;52.512;13.448;2023-03-14T03:00:56;98666.00;;;18.80
63220;BMP180;49320;52.512;13.448;2023-03-14T03:03:22;98656.00;;;18.80
63220;BMP180;49320;52.512;13.448;2023-03-14T03:05:52;98658.00;;;18.80
63220;BMP180;49320;52.512;13.448;2023-03-14T03:08:22;98654.00;;;18.80
63220;BMP180;49320;52.512;13.448;2023-03-14T03:10:50;98648.00;;;18.70
63220;BMP180;49320;52.512;13.448;2023-03-14T03:13:17;98637.00;;;18.70
63220;BMP180;49320;52.512;13.448;2023-03-14T03:15:45;98618.00;;;18.70
63220;BMP180;49320;52.512;13.448;2023-03-14T03:18:12;98613.00;;;18.70
63220;BMP180;49320;52.512;13.448;2023-03-14T03:20:39;98614.00;;;18.70
63220;BMP180;49320;52.512;13.448;2023-03-14T03:23:06;98608.00;;;18.70
63220;BMP180;49320;52.512;13.448;2023-03-14T03:25:33;98602.00;;;18.60
63220;BMP180;49320;52.512;13.448;2023-03-14T03:28:00;98615.00;;;18.60
63220;BMP180;49320;52.512;13.448;2023-03-14T03:30:27;98623.00;;;18.60
63220;BMP180;49320;52.512;13.448;2023-03-14T03:32:53;98648.00;;;18.60
63220;BMP180;49320;52.512;13.448;2023-03-14T03:35:20;98635.00;;;18.60
63220;BMP180;49320;52.512;13.448;2023-03-14T03:37:47;98636.00;;;18.60
63220;BMP180;49320;52.512;13.448;2023-03-14T03:40:14;98641.00;;;18.50
63220;BMP180;49320;52.512;13.448;2023-03-14T03:42:40;98650.00;;;18.50
63220;BMP180;49320;52.512;13.448;2023-03-14T03:45:08;98644.00;;;18.50
63220;BMP180;49320;52.512;13.448;2023-03-14T03:47:35;98640.00;;;18.50
63220;BMP180;49320;52.512;13.448;2023-03-14T03:50:02;98634.00;;;18.50
63220;BMP180;49320;52.512;13.448;2023-03-14T03:52:29;98636.00;;;18.40
63220;BMP180;49320;52.512;13.448;2023-03-14T03:54:56;98614.00;;;18.40
63220;BMP180;49320;52.512;13.448;2023-03-14T03:57:22;98630.00;;;18.40
63220;BMP180;49320;52.512;13.448;2023-03-14T03:59:49;98623.00;;;18.40
63220;BMP180;49320;52.512;13.448;2023-03-14T04:02:16;98629.00;;;18.40
63220;BMP180;49320;52.512;13.448;2023-03-14T04:04:43;98622.00;;;18.30
63220;BMP180;49320;52.512;13.448;2023-03-14T04:07:10;98631.00;;;18.30
63220;BMP180;49320;52.512;13.448;2023-03-14T04:09:40;98641.00;;;18.30
63220;BMP180;49320;52.512;13.448;2023-03-14T04:12:06;98610.00;;;18.30
63220;BMP180;49320;52.512;13.448;2023-03-14T04:14:33;98609.00;;;18.30
63220;BMP180;49320;52.512;13.448;2023-03-14T04:17:00;98632.00;;;18.30
63220;BMP180;49320;52.512;13.448;2023-03-14T04:19:27;98637.00;;;18.20
63220;BMP180;49320;52.512;13.448;2023-03-14T04:21:54;98630.00;;;18.20
63220;BMP180;49320;52.512;13.448;2023-03-14T04:24:20;98610.00;;;18.20
63220;BMP180;49320;52.512;13.448;2023-03-14T04:26:47;98608.00;;;18.20
63220;BMP180;49320;52.512;13.448;2023-03-14T04:29:14;98618.00;;;18.20
63220;BMP180;49320;52.512;13.448;2023-03-14T04:31:41;98613.00;;;18.20
63220;BMP180;49320;52.512;13.448;2023-03-14T04:34:08;98597.00;;;18.20
63220;BMP180;49320;52.512;13.448;2023-03-14T04:36:35;98602.00;;;18.20
63220;BMP180;49320;52.512;13.448;2023-03-14T04:39:05;98606.00;;;18.20
63220;BMP180;49320;52.512;13.448;2023-03-14T04:41:31;98598.00;;;18.20
63220;BMP180;49320;52.512;13.448;2023-03-14T04:43:58;98591.00;;;18.20
63220;BMP180;49320;52.512;13.448;2023-03-14T04:46:25;98580.00;;;18.20
63220;BMP180;49320;52.512;13.448;2023-03-14T04:48:52;98574.00;;;18.20
63220;BMP180;49320;52.512;13.448;2023-03-14T04:51:19;98580.00;;;18.20
63220;BMP180;49320;52.512;13.448;2023-03-14T04:53:45;98576.00;;;18.20
63220;BMP180;49320;52.512;13.448;2023-03-14T04:56:12;98558.00;;;18.20
63220;BMP180;49320;52.512;13.448;2023-03-14T04:58:40;98562.00;;;18.20
63220;BMP180;49320;52.512;13.448;2023-03-14T05:01:06;98557.00;;;18.20
63220;BMP180;49320;52.512;13.448;2023-03-14T05:03:33;98560.00;;;18.20
63220;BMP180;49320;52.512;13.448;2023-03-14T05:06:02;98571.00;;;18.20
63220;BMP180;49320;52.512;13.448;2023-03-14T05:08:30;98572.00;;;18.20
63220;BMP180;49320;52.512;13.448;2023-03-14T05:10:57;98580.00;;;18.20
63220;BMP180;49320;52.512;13.448;2023-03-14T05:13:25;98585.00;;;18.20
63220;BMP180;49320;52.512;13.448;2023-03-14T05:15:51;98581.00;;;18.20
63220;BMP180;49320;52.512;13.448;2023-03-14T05:18:18;98570.00;;;18.20
63220;BMP180;49320;52.512;13.448;2023-03-14T05:20:45;98558.00;;;18.20
63220;BMP180;49320;52.512;13.448;2023-03-14T05:23:12;98556.00;;;18.20
63220;BMP180;49320;52.512;13.448;2023-03-14T05:25:39;98542.00;;;18.20
63220;BMP180;49320;52.512;13.448;2023-03-14T05:28:06;98538.00;;;18.20
63220;BMP180;49320;52.512;13.448;2023-03-14T05:30:32;98546.00;;;18.20
63220;BMP180;49320;52.512;13.448;2023-03-14T05:33:00;98550.00;;;18.20
63220;BMP180;49320;52.512;13.448;2023-03-14T05:35:27;98539.00;;;18.20
63220;BMP180;49320;52.512;13.448;2023-03-14T05:37:54;98544.00;;;18.20
63220;BMP180;49320;52.512;13.448;2023-03-14T05:40:20;98549.00;;;18.20
63220;BMP180;49320;52.512;13.448;2023-03-14T05:42:47;98539.00;;;18.20
63220;BMP180;49320;52.512;13.448;2023-03-14T05:45:14;98544.00;;;18.20
63220;BMP180;49320;52.512;13.448;2023-03-14T05:47:41;98557.00;;;18.30
63220;BMP180;49320;52.512;13.448;2023-03-14T05:50:10;98555.00;;;18.30
63220;BMP180;49320;52.512;13.448;2023-03-14T05:52:37;98561.00;;;18.30
63220;BMP180;49320;52.512;13.448;2023-03-14T05:55:05;98558.00;;;18.30
63220;BMP180;49320;52.512;13.448;2023-03-14T05:57:31;98550.00;;;18.30
63220;BMP180;49320;52.512;13.448;2023-03-14T05:59:59;98550.00;;;18.30
63220;BMP180;49320;52.512;13.448;2023-03-14T06:02:25;98547.00;;;18.40
63220;BMP180;49320;52.512;13.448;2023-03-14T06:04:52;98546.00;;;18.40
63220;BMP180;49320;52.512;13.448;2023-03-14T06:07:19;98544.00;;;18.40
63220;BMP180;49320;52.512;13.448;2023-03-14T06:09:46;98542.00;;;18.40
63220;BMP180;49320;52.512;13.448;2023-03-14T06:12:13;98550.00;;;18.40
63220;BMP180;49320;52.512;13.448;2023-03-14T06:14:39;98548.00;;;18.40
63220;BMP180;49320;52.512;13.448;2023-03-14T06:17:06;98549.00;;;18.50
63220;BMP180;49320;52.512;13.448;2023-03-14T06:19:33;98551.00;;;18.50
63220;BMP180;49320;52.512;13.448;2023-03-14T06:22:00;98544.00;;;18.50
63220;BMP180;49320;52.512;13.448;2023-03-14T06:24:27;98548.00;;;18.50
63220;BMP180;49320;52.512;13.448;2023-03-14T06:26:54;98538.00;;;18.50
63220;BMP180;49320;52.512;13.448;2023-03-14T06:29:21;98558.00;;;18.50
63220;BMP180;49320;52.512;13.448;2023-03-14T06:31:48;98560.00;;;18.50
63220;BMP180;49320;52.512;13.448;2023-03-14T06:34:15;98553.00;;;18.60
63220;BMP180;49320;52.512;13.448;2023-03-14T06:36:42;98559.00;;;18.60
63220;BMP180;49320;52.512;13.448;2023-03-14T06:39:08;98555.00;;;18.60
63220;BMP180;49320;52.512;13.448;2023-03-14T06:41:35;98554.00;;;18.70
63220;BMP180;49320;52.512;13.448;2023-03-14T06:44:02;98548.00;;;18.70
63220;BMP180;49320;52.512;13.448;2023-03-14T06:46:29;98561.00;;;18.70
63220;BMP180;49320;52.512;13.448;2023-03-14T06:48:56;98559.00;;;18.80
63220;BMP180;49320;52.512;13.448;2023-03-14T06:51:23;98570.00;;;18.80
63220;BMP180;49320;52.512;13.448;2023-03-14T06:53:50;98577.00;;;18.90
63220;BMP180;49320;52.512;13.448;2023-03-14T06:56:17;98584.00;;;18.90
63220;BMP180;49320;52.512;13.448;2023-03-14T06:58:43;98585.00;;;18.90
63220;BMP180;49320;52.512;13.448;2023-03-14T07:01:27;98586.00;;;19.00
63220;BMP180;49320;52.512;13.448;2023-03-14T07:03:54;98589.00;;;19.00
63220;BMP180;49320;52.512;13.448;2023-03-14T07:06:22;98587.00;;;19.00
63220;BMP180;49320;52.512;13.448;2023-03-14T07:08:49;98590.00;;;19.10
63220;BMP180;49320;52.512;13.448;2023-03-14T07:11:16;98595.00;;;19.10
63220;BMP180;49320;52.512;13.448;2023-03-14T07:13:43;98600.00;;;19.20
63220;BMP180;49320;52.512;13.448;2023-03-14T07:16:09;98595.00;;;19.20
63220;BMP180;49320;52.512;13.448;2023-03-14T07:18:36;98596.00;;;19.30
63220;BMP180;49320;52.512;13.448;2023-03-14T07:21:06;98590.00;;;19.30
63220;BMP180;49320;52.512;13.448;2023-03-14T07:23:33;98610.00;;;19.30
63220;BMP180;49320;52.512;13.448;2023-03-14T07:26:00;98611.00;;;19.30
63220;BMP180;49320;52.512;13.448;2023-03-14T07:28:27;98614.00;;;19.30
63220;BMP180;49320;52.512;13.448;2023-03-14T07:30:54;98615.00;;;19.30
63220;BMP180;49320;52.512;13.448;2023-03-14T07:33:21;98613.00;;;19.30
63220;BMP180;49320;52.512;13.448;2023-03-14T07:35:49;98611.00;;;19.30
63220;BMP180;49320;52.512;13.448;2023-03-14T07:38:17;98614.00;;;19.40
63220;BMP180;49320;52.512;13.448;2023-03-14T07:40:46;98614.00;;;19.40
63220;BMP180;49320;52.512;13.448;2023-03-14T07:43:13;98620.00;;;19.40
63220;BMP180;49320;52.512;13.448;2023-03-14T07:45:39;98610.00;;;19.40
63220;BMP180;49320;52.512;13.448;2023-03-14T07:48:08;98613.00;;;19.40
63220;BMP180;49320;52.512;13.448;2023-03-14T07:50:36;98623.00;;;19.40
63220;BMP180;49320;52.512;13.448;2023-03-14T07:53:03;98612.00;;;19.30
63220;BMP180;49320;52.512;13.448;2023-03-14T07:55:29;98609.00;;;19.30
63220;BMP180;49320;52.512;13.448;2023-03-14T07:57:56;98615.00;;;19.20
63220;BMP180;49320;52.512;13.448;2023-03-14T08:00:23;98619.00;;;19.20
63220;BMP180;49320;52.512;13.448;2023-03-14T08:02:50;98602.00;;;19.20
63220;BMP180;49320;52.512;13.448;2023-03-14T08:05:17;98613.00;;;19.20
63220;BMP180;49320;52.512;13.448;2023-03-14T08:07:44;98609.00;;;19.20
63220;BMP180;49320;52.512;13.448;2023-03-14T08:10:11;98602.00;;;19.20
63220;BMP180;49320;52.512;13.448;2023-03-14T08:12:42;98599.00;;;19.20
63220;BMP180;49320;52.512;13.448;2023-03-14T08:15:09;98599.00;;;19.20
63220;BMP180;49320;52.512;13.448;2023-03-14T08:17:36;98594.00;;;19.30
63220;BMP180;49320;52.512;13.448;2023-03-14T08:20:04;98591.00;;;19.40
63220;BMP180;49320;52.512;13.448;2023-03-14T08:22:35;98587.00;;;19.50
63220;BMP180;49320;52.512;13.448;2023-03-14T08:25:03;98591.00;;;19.60
63220;BMP180;49320;52.512;13.448;2023-03-14T08:27:29;98590.00;;;19.70
63220;BMP180;49320;52.512;13.448;2023-03-14T08:29:57;98593.00;;;19.80
63220;BMP180;49320;52.512;13.448;2023-03-14T08:32:24;98599.00;;;19.80
63220;BMP180;49320;52.512;13.448;2023-03-14T08:34:51;98590.00;;;19.90
63220;BMP180;49320;52.512;13.448;2023-03-14T08:37:17;98607.00;;;20.00
63220;BMP180;49320;52.512;13.448;2023-03-14T08:39:53;98612.00;;;20.10
63220;BMP180;49320;52.512;13.448;2023-03-14T08:42:20;98609.00;;;20.20
63220;BMP180;49320;52.512;13.448;2023-03-14T08:44:46;98615.00;;;20.30
63220;BMP180;49320;52.512;13.448;2023-03-14T08:47:13;98607.00;;;20.30
63220;BMP180;49320;52.512;13.448;2023-03-14T08:49:40;98606.00;;;20.40
63220;BMP180;49320;52.512;13.448;2023-03-14T08:52:07;98622.00;;;20.40
63220;BMP180;49320;52.512;13.448;2023-03-14T08:54:34;98616.00;;;20.50
63220;BMP180;49320;52.512;13.448;2023-03-14T08:57:01;98616.00;;;20.50
63220;BMP180;49320;52.512;13.448;2023-03-14T08:59:28;98627.00;;;20.50
63220;BMP180;49320;52.512;13.448;2023-03-14T09:01:55;98623.00;;;20.50
63220;BMP180;49320;52.512;13.448;2023-03-14T09:04:22;98613.00;;;20.60
63220;BMP180;49320;52.512;13.448;2023-03-14T09:06:49;98626.00;;;20.60
63220;BMP180;49320;52.512;13.448;2023-03-14T09:09:15;98625.00;;;20.60
63220;BMP180;49320;52.512;13.448;2023-03-14T09:11:42;98617.00;;;20.60
63220;BMP180;49320;52.512;13.448;2023-03-14T09:14:09;98615.00;;;20.60
63220;BMP180;49320;52.512;13.448;2023-03-14T09:16:36;98617.00;;;20.70
63220;BMP180;49320;52.512;13.448;2023-03-14T09:19:02;98604.00;;;20.70
63220;BMP180;49320;52.512;13.448;2023-03-14T09:21:30;98601.00;;;20.80
63220;BMP180;49320;52.512;13.448;2023-03-14T09:23:57;98591.00;;;20.90
63220;BMP180;49320;52.512;13.448;2023-03-14T09:26:23;98589.00;;;20.90
63220;BMP180;49320;52.512;13.448;2023-03-14T09:28:50;98585.00;;;21.00
63220;BMP180;49320;52.512;13.448;2023-03-14T09:31:17;98594.00;;;21.00
63220;BMP180;49320;52.512;13.448;2023-03-14T09:33:44;98589.00;;;21.00
63220;BMP180;49320;52.512;13.448;2023-03-14T09:36:12;98584.00;;;20.90
63220;BMP180;49320;52.512;13.448;2023-03-14T09:38:39;98593.00;;;21.00
63220;BMP180;49320;52.512;13.448;2023-03-14T09:41:21;98583.00;;;21.00
63220;BMP180;49320;52.512;13.448;2023-03-14T09:43:59;98587.00;;;21.00
63220;BMP180;49320;52.512;13.448;2023-03-14T09:46:29;98589.00;;;21.00
63220;BMP180;49320;52.512;13.448;2023-03-14T09:48:57;98583.00;;;21.10
63220;BMP180;49320;52.512;13.448;2023-03-14T09:51:25;98585.00;;;21.20
63220;BMP180;49320;52.512;13.448;2023-03-14T09:53:53;98597.00;;;21.30
63220;BMP180;49320;52.512;13.448;2023-03-14T09:56:25;98593.00;;;21.30
63220;BMP180;49320;52.512;13.448;2023-03-14T09:58:58;98591.00;;;21.40
63220;BMP180;49320;52.512;13.448;2023-03-14T10:01:29;98597.00;;;21.40
63220;BMP180;49320;52.512;13.448;2023-03-14T10:04:05;98597.00;;;21.40
63220;BMP180;49320;52.512;13.448;2023-03-14T10:06:33;98602.00;;;21.40
63220;BMP180;49320;52.512;13.448;2023-03-14T10:09:02;98608.00;;;21.40
63220;BMP180;49320;52.512;13.448;2023-03-14T10:11:30;98599.00;;;21.40
63220;BMP180;49320;52.512;13.448;2023-03-14T10:14:08;98611.00;;;21.50
63220;BMP180;49320;52.512;13.448;2023-03-14T10:16:43;98594.00;;;21.50
63220;BMP180;49320;52.512;13.448;2023-03-14T10:19:16;98598.00;;;21.60
63220;BMP180;49320;52.512;13.448;2023-03-14T10:21:51;98606.00;;;21.60
63220;BMP180;49320;52.512;13.448;2023-03-14T10:24:27;98610.00;;;21.60
63220;BMP180;49320;52.512;13.448;2023-03-14T10:26:58;98610.00;;;21.60
63220;BMP180;49320;52.512;13.448;2023-03-14T10:29:34;98605.00;;;21.60
63220;BMP180;49320;52.512;13.448;2023-03-14T10:32:06;98610.00;;;21.60
63220;BMP180;49320;52.512;13.448;2023-03-14T10:34:38;98612.00;;;21.60
63220;BMP180;49320;52.512;13.448;2023-03-14T10:37:21;98603.00;;;21.60
63220;BMP180;49320;52.512;13.448;2023-03-14T10:39:55;98608.00;;;21.60
63220;BMP180;49320;52.512;13.448;2023-03-14T10:42:30;98604.00;;;21.60
63220;BMP180;49320;52.512;13.448;2023-03-14T10:45:24;98608.00;;;21.60
63220;BMP180;49320;52.512;13.448;2023-03-14T10:47:53;98605.00;;;21.50
63220;BMP180;49320;52.512;13.448;2023-03-14T10:50:30;98606.00;;;21.50
63220;BMP180;49320;52.512;13.448;2023-03-14T10:53:02;98610.00;;;21.50
63220;BMP180;49320;52.512;13.448;2023-03-14T10:55:44;98614.00;;;21.50
63220;BMP180;49320;52.512;13.448;2023-03-14T10:58:30;98611.00;;;21.50
63220;BMP180;49320;52.512;13.448;2023-03-14T11:03:56;98616.00;;;21.40
63220;BMP180;49320;52.512;13.448;2023-03-14T11:06:54;98618.00;;;21.50
63220;BMP180;49320;52.512;13.448;2023-03-14T11:09:43;98602.00;;;21.50
63220;BMP180;49320;52.512;13.448;2023-03-14T11:12:38;98607.00;;;21.50
63220;BMP180;49320;52.512;13.448;2023-03-14T11:16:27;98603.00;;;21.50
63220;BMP180;49320;52.512;13.448;2023-03-14T11:21:32;98608.00;;;21.50
63220;BMP180;49320;52.512;13.448;2023-03-14T11:24:34;98609.00;;;21.60
63220;BMP180;49320;52.512;13.448;2023-03-14T11:27:18;98609.00;;;21.60
63220;BMP180;49320;52.512;13.448;2023-03-14T11:30:13;98607.00;;;21.60
63220;BMP180;49320;52.512;13.448;2023-03-14T11:35:49;98600.00;;;21.60
63220;BMP180;49320;52.512;13.448;2023-03-14T11:38:46;98595.00;;;21.60
63220;BMP180;49320;52.512;13.448;2023-03-14T11:43:57;98612.00;;;21.60
63220;BMP180;49320;52.512;13.448;2023-03-14T11:46:38;98598.00;;;21.70
63220;BMP180;49320;52.512;13.448;2023-03-14T11:51:59;98597.00;;;21.70
63220;BMP180;49320;52.512;13.448;2023-03-14T11:54:36;98597.00;;;21.70
63220;BMP180;49320;52.512;13.448;2023-03-14T11:57:16;98590.00;;;21.70
63220;BMP180;49320;52.512;13.448;2023-03-14T11:59:55;98594.00;;;21.70
63220;BMP180;49320;52.512;13.448;2023-03-14T12:08:38;98599.00;;;21.90
63220;BMP180;49320;52.512;13.448;2023-03-14T12:11:31;98589.00;;;21.90
63220;BMP180;49320;52.512;13.448;2023-03-14T12:14:00;98597.00;;;21.90
63220;BMP180;49320;52.512;13.448;2023-03-14T12:16:35;98582.00;;;22.00
63220;BMP180;49320;52.512;13.448;2023-03-14T12:22:19;98588.00;;;22.20
63220;BMP180;49320;52.512;13.448;2023-03-14T12:25:00;98589.00;;;22.20
63220;BMP180;49320;52.512;13.448;2023-03-14T12:35:49;98568.00;;;22.30
63220;BMP180;49320;52.512;13.448;2023-03-14T12:41:27;98567.00;;;22.40
63220;BMP180;49320;52.512;13.448;2023-03-14T12:43:55;98570.00;;;22.30
63220;BMP180;49320;52.512;13.448;2023-03-14T12:46:24;98563.00;;;22.40
63220;BMP180;49320;52.512;13.448;2023-03-14T12:57:28;98560.00;;;22.40
63220;BMP180;49320;52.512;13.448;2023-03-14T13:02:46;98556.00;;;22.50
63220;BMP180;49320;52.512;13.448;2023-03-14T13:05:22;98563.00;;;22.60
63220;BMP180;49320;52.512;13.448;2023-03-14T13:10:28;98572.00;;;22.50
63220;BMP180;49320;52.512;13.448;2023-03-14T13:13:24;98576.00;;;22.50
63220;BMP180;49320;52.512;13.448;2023-03-14T13:16:01;98580.00;;;22.40
63220;BMP180;49320;52.512;13.448;2023-03-14T13:18:40;98575.00;;;22.30
63220;BMP180;49320;52.512;13.448;2023-03-14T13:21:20;98576.00;;;22.20
63220;BMP180;49320;52.512;13.448;2023-03-14T13:24:03;98563.00;;;22.00
63220;BMP180;49320;52.512;13.448;2023-03-14T13:26:41;98574.00;;;21.80
63220;BMP180;49320;52.512;13.448;2023-03-14T13:31:54;98559.00;;;21.60
63220;BMP180;49320;52.512;13.448;2023-03-14T13:34:28;98549.00;;;21.50
63220;BMP180;49320;52.512;13.448;2023-03-14T13:36:56;98544.00;;;21.60
63220;BMP180;49320;52.512;13.448;2023-03-14T13:39:26;98526.00;;;21.60
63220;BMP180;49320;52.512;13.448;2023-03-14T13:42:00;98528.00;;;21.60
63220;BMP180;49320;52.512;13.448;2023-03-14T13:44:33;98520.00;;;21.60
63220;BMP180;49320;52.512;13.448;2023-03-14T13:47:03;98509.00;;;21.60
63220;BMP180;49320;52.512;13.448;2023-03-14T13:49:33;98524.00;;;21.50
63220;BMP180;49320;52.512;13.448;2023-03-14T13:52:03;98530.00;;;21.40
63220;BMP180;49320;52.512;13.448;2023-03-14T13:54:31;98518.00;;;21.40
63220;BMP180;49320;52.512;13.448;2023-03-14T13:57:05;98526.00;;;21.40
63220;BMP180;49320;52.512;13.448;2023-03-14T13:59:34;98519.00;;;21.40
63220;BMP180;49320;52.512;13.448;2023-03-14T14:02:12;98529.00;;;21.40
63220;BMP180;49320;52.512;13.448;2023-03-14T14:04:43;98525.00;;;21.40
63220;BMP180;49320;52.512;13.448;2023-03-14T14:07:15;98517.00;;;21.40
63220;BMP180;49320;52.512;13.448;2023-03-14T14:09:50;98525.00;;;21.40
63220;BMP180;49320;52.512;13.448;2023-03-14T14:12:28;98522.00;;;21.40
63220;BMP180;49320;52.512;13.448;2023-03-14T14:15:06;98512.00;;;21.30
63220;BMP180;49320;52.512;13.448;2023-03-14T14:17:49;98509.00;;;21.30
63220;BMP180;49320;52.512;13.448;2023-03-14T14:22:51;98505.00;;;21.30
63220;BMP180;49320;52.512;13.448;2023-03-14T14:25:18;98496.00;;;21.20
63220;BMP180;49320;52.512;13.448;2023-03-14T14:27:50;98495.00;;;21.20
63220;BMP180;49320;52.512;13.448;2023-03-14T14:32:50;98499.00;;;21.30
63220;BMP180;49320;52.512;13.448;2023-03-14T14:35:34;98507.00;;;21.30
63220;BMP180;49320;52.512;13.448;2023-03-14T14:38:12;98502.00;;;21.30
63220;BMP180;49320;52.512;13.448;2023-03-14T14:40:49;98500.00;;;21.40
63220;BMP180;49320;52.512;13.448;2023-03-14T14:43:21;98498.00;;;21.40
63220;BMP180;49320;52.512;13.448;2023-03-14T14:45:54;98495.00;;;21.40
63220;BMP180;49320;52.512;13.448;2023-03-14T14:48:24;98499.00;;;21.50
63220;BMP180;49320;52.512;13.448;2023-03-14T14:51:04;98493.00;;;21.50
63220;BMP180;49320;52.512;13.448;2023-03-14T14:56:06;98497.00;;;21.60
63220;BMP180;49320;52.512;13.448;2023-03-14T14:58:43;98506.00;;;21.70
63220;BMP180;49320;52.512;13.448;2023-03-14T15:01:22;98488.00;;;21.70
63220;BMP180;49320;52.512;13.448;2023-03-14T15:03:52;98488.00;;;21.70
63220;BMP180;49320;52.512;13.448;2023-03-14T15:06:27;98486.00;;;21.70
63220;BMP180;49320;52.512;13.448;2023-03-14T15:08:55;98502.00;;;21.70
63220;BMP180;49320;52.512;13.448;2023-03-14T15:11:25;98502.00;;;21.70
63220;BMP180;49320;52.512;13.448;2023-03-14T15:13:53;98504.00;;;21.70
63220;BMP180;49320;52.512;13.448;2023-03-14T15:16:25;98511.00;;;21.70
63220;BMP180;49320;52.512;13.448;2023-03-14T15:18:59;98492.00;;;21.70